Sunflower IVory — JI3634 — position and weather

sailwx.info

Track history (hours):
 
Tides and Currents Weather Stations Pressure Air Temp Water Temp Dewpoint Dewpoint Depression Visibility Wind Speed Wind Dir Waves Ship Positions

Sunflower IVory

Last reported at 2018-Jan-22 13:28 UTC. Time now 2018-Jan-22 13:43 UTC.
Position N 34°26' E 134°08'.

Length 153 m; draft 5.7 m.

Type: Ship. MMSI: 431300686.

Date/timePositionNaut miles runAvg speedWind from/ knotsBaromVisibWave heightAir tempDewpointWater temp
2018-Jan-22 13:28N 34°26' E 134°08'1020.8
2018-Jan-22 13:00N 34°24' E 134°20'1020.4
2018-Jan-22 12:31N 34°28' E 134°31'1020.6
2018-Jan-22 12:01N 34°32' E 134°43'1020.3
2018-Jan-22 11:30N 34°36' E 134°54'917.1
2018-Jan-22 11:00N 34°35' E 135°05'1020.3
2018-Jan-22 10:30N 34°37' E 135°17'713.1
2018-Jan-22 10:00N 34°38' E 135°25'0 0.0
2018-Jan-22 09:27N 34°38' E 135°25'0 0.0
2018-Jan-22 09:00N 34°38' E 135°25'0 0.0
2018-Jan-22 08:30N 34°38' E 135°25'0 0.0
2018-Jan-22 07:57N 34°38' E 135°25'0 0.0
2018-Jan-22 07:30N 34°38' E 135°25'0 0.0
2018-Jan-22 06:57N 34°38' E 135°25'0 0.0
2018-Jan-22 06:27N 34°38' E 135°25'0 0.0
2018-Jan-22 05:57N 34°38' E 135°25'0 0.0
2018-Jan-22 05:30N 34°38' E 135°25'0 0.0
2018-Jan-22 05:00N 34°38' E 135°25'0 0.0
2018-Jan-22 04:30N 34°38' E 135°25'0 0.0
2018-Jan-22 04:00N 34°38' E 135°25'0 0.0
2018-Jan-22 03:27N 34°38' E 135°25'0 0.0
2018-Jan-22 03:00N 34°38' E 135°25'0 0.0
2018-Jan-22 02:27N 34°38' E 135°25'0 0.0
2018-Jan-22 02:00N 34°38' E 135°25'0 0.0
2018-Jan-22 01:27N 34°38' E 135°25'0 0.0
2018-Jan-22 01:00N 34°38' E 135°25'0 0.0
2018-Jan-22 00:30N 34°38' E 135°25'0 0.0
2018-Jan-21 23:57N 34°38' E 135°25'0 0.0
2018-Jan-21 23:30N 34°38' E 135°25'0 0.0
2018-Jan-21 23:00N 34°38' E 135°25'0 0.0
2018-Jan-21 22:30N 34°38' E 135°25'0 0.0
2018-Jan-21 22:00N 34°38' E 135°25'0 0.0
2018-Jan-21 21:30N 34°38' E 135°25'510.3
2018-Jan-21 21:00N 34°36' E 135°19'918.8
2018-Jan-21 20:30N 34°34' E 135°08'918.3
2018-Jan-21 20:00N 34°36' E 134°57'1019.8
2018-Jan-21 19:31N 34°32' E 134°46'918.5
2018-Jan-21 19:00N 34°29' E 134°36'918.4
2018-Jan-21 18:30N 34°25' E 134°25'918.2
2018-Jan-21 17:59N 34°24' E 134°14'7017.5
2018-Jan-21 13:59N 34°07' E 132°52'1021.4
2018-Jan-21 13:30N 33°59' E 132°44'1121.0
2018-Jan-21 13:00N 33°52' E 132°35'1020.4
2018-Jan-21 12:30N 33°46' E 132°26'1820.7
2018-Jan-21 11:38N 33°36' E 132°07'320.7
2018-Jan-21 11:30N 33°34' E 132°05'1120.9
2018-Jan-21 11:00N 33°28' E 131°54'1020.7
2018-Jan-21 10:30N 33°22' E 131°44'12 1.0
2018-Jan-20 22:34N 33°18' E 131°30'715.8
2018-Jan-20 22:08N 33°19' E 131°39'418.7
2018-Jan-20 21:55N 33°21' E 131°43'818.1
2018-Jan-20 21:28N 33°26' E 131°51'1518.3
2018-Jan-20 20:39N 33°34' E 132°06'318.8
2018-Jan-20 20:30N 33°36' E 132°08'918.9
2018-Jan-20 20:00N 33°41' E 132°17'1019.3
2018-Jan-20 19:30N 33°47' E 132°27'1019.4
2018-Jan-20 18:59N 33°54' E 132°36'920.0
2018-Jan-20 18:31N 34°00' E 132°44'6717.3
2018-Jan-20 14:38N 34°25' E 133°59'214.0
2018-Jan-20 14:30N 34°26' E 134°01'1019.4
2018-Jan-20 14:00N 34°24' E 134°13'1020.6
2018-Jan-20 13:30N 34°26' E 134°25'1021.0
2018-Jan-20 13:00N 34°31' E 134°37'1020.5
2018-Jan-20 12:30N 34°34' E 134°49'1121.2
2018-Jan-20 12:00N 34°38' E 135°01'1020.0
2018-Jan-20 11:30N 34°36' E 135°13'918.8
2018-Jan-20 11:00N 34°38' E 135°24'1 1.4
2018-Jan-20 10:29N 34°38' E 135°25'0 0.0
2018-Jan-20 09:59N 34°38' E 135°25'0 0.0
2018-Jan-20 09:29N 34°38' E 135°25'0 0.0
2018-Jan-20 08:59N 34°38' E 135°25'0 0.0
2018-Jan-20 08:29N 34°38' E 135°25'0 0.0
2018-Jan-20 07:59N 34°38' E 135°25'0 0.0
2018-Jan-20 07:29N 34°38' E 135°25'0 0.0
2018-Jan-20 06:59N 34°38' E 135°25'0 0.0
2018-Jan-20 06:29N 34°38' E 135°25'0 0.0
2018-Jan-20 05:59N 34°38' E 135°25'0 0.0
2018-Jan-20 05:29N 34°38' E 135°25'0 0.0
2018-Jan-20 04:59N 34°38' E 135°25'0 0.0
2018-Jan-20 04:29N 34°38' E 135°25'0 0.0
2018-Jan-20 03:59N 34°38' E 135°25'0 0.0
2018-Jan-20 03:29N 34°38' E 135°25'0 0.0
2018-Jan-20 02:59N 34°38' E 135°25'0 0.0
2018-Jan-20 02:29N 34°38' E 135°25'0 0.0
2018-Jan-20 01:59N 34°38' E 135°25'0 0.0
2018-Jan-20 01:29N 34°38' E 135°25'0 0.0
2018-Jan-20 00:59N 34°38' E 135°25'0 0.0
2018-Jan-20 00:29N 34°38' E 135°25'0 0.0
2018-Jan-19 23:59N 34°38' E 135°25'0 0.0
2018-Jan-19 23:29N 34°38' E 135°25'0 0.0
2018-Jan-19 22:59N 34°38' E 135°25'0 0.0
2018-Jan-19 22:29N 34°38' E 135°25'3 5.2
2018-Jan-19 22:00N 34°37' E 135°22'917.3
2018-Jan-19 21:31N 34°35' E 135°12'917.7
2018-Jan-19 21:00N 34°37' E 135°01'918.8
2018-Jan-19 20:31N 34°34' E 134°50'918.8
2018-Jan-19 20:01N 34°30' E 134°40'918.4
2018-Jan-19 19:30N 34°26' E 134°30'918.3
2018-Jan-19 19:01N 34°24' E 134°19'1019.3
2018-Jan-19 18:28N 34°26' E 134°07'6817.7
2018-Jan-19 14:39N 34°06' E 132°49'321.0
2018-Jan-19 14:29N 34°03' E 132°47'1021.1
2018-Jan-19 14:00N 33°55' E 132°39'1120.9
2018-Jan-19 13:29N 33°48' E 132°29'1121.1
2018-Jan-19 12:58N 33°42' E 132°18'1021.1
2018-Jan-19 12:29N 33°37' E 132°08'1021.2
2018-Jan-19 12:00N 33°31' E 131°58'1420.9
2018-Jan-19 11:22N 33°23' E 131°45'720.1
2018-Jan-19 11:00N 33°19' E 131°37'0 0.0
2018-Jan-18 21:14N 33°19' E 131°38'418.0
2018-Jan-18 21:00N 33°20' E 131°42'917.7
2018-Jan-18 20:30N 33°26' E 131°51'1417.8
2018-Jan-18 19:41N 33°34' E 132°05'318.7
2018-Jan-18 19:30N 33°36' E 132°09'1019.0
2018-Jan-18 19:00N 33°42' E 132°18'1020.1
2018-Jan-18 18:31N 33°47' E 132°28'1020.4
2018-Jan-18 18:00N 33°54' E 132°37'1120.7
2018-Jan-18 17:29N 34°02' E 132°46'6817.5
2018-Jan-18 13:34N 34°27' E 134°03'320.7
2018-Jan-18 13:27N 34°27' E 134°06'920.4
2018-Jan-18 13:00N 34°24' E 134°17'1020.4
2018-Jan-18 12:30N 34°27' E 134°29'1020.5
2018-Jan-18 12:00N 34°31' E 134°40'1121.0
2018-Jan-18 11:30N 34°35' E 134°52'1019.9
2018-Jan-18 11:00N 34°36' E 135°04'1020.4
2018-Jan-18 10:30N 34°37' E 135°16'714.2
2018-Jan-18 10:00N 34°38' E 135°25'0 0.0
2018-Jan-18 09:30N 34°38' E 135°25'0 0.0
2018-Jan-18 09:00N 34°38' E 135°25'0 0.0
2018-Jan-18 08:30N 34°38' E 135°25'0 0.0
2018-Jan-18 08:00N 34°38' E 135°25'0 0.0
2018-Jan-18 07:30N 34°38' E 135°25'0 0.0
2018-Jan-18 07:00N 34°38' E 135°25'0 0.0
2018-Jan-18 06:30N 34°38' E 135°25'0 0.0
2018-Jan-18 06:00N 34°38' E 135°25'0 0.0
2018-Jan-18 05:30N 34°38' E 135°25'0 0.0
2018-Jan-18 05:00N 34°38' E 135°25'0 0.0
2018-Jan-18 04:30N 34°38' E 135°25'0 0.0
2018-Jan-18 04:00N 34°38' E 135°25'0 0.0
2018-Jan-18 03:30N 34°38' E 135°25'0 0.0
2018-Jan-18 03:00N 34°38' E 135°25'0 0.0
2018-Jan-18 02:30N 34°38' E 135°25'0 0.0
2018-Jan-18 02:00N 34°38' E 135°25'0 0.0
2018-Jan-18 01:30N 34°38' E 135°25'0 0.0
2018-Jan-18 01:00N 34°38' E 135°25'0 0.0
2018-Jan-18 00:00N 34°38' E 135°25'0 0.0
2018-Jan-17 23:57N 34°38' E 135°25'  
2018-Jan-12 14:38N 34°26' E 134°02'517.8
2018-Jan-12 14:20N 34°26' E 134°08'719.4
2018-Jan-12 14:00N 34°25' E 134°16'1020.5
2018-Jan-12 13:30N 34°28' E 134°28'  
Track history (hours):
 
Tides and Currents Weather Stations Pressure Air Temp Water Temp Dewpoint Dewpoint Depression Visibility Wind Speed Wind Dir Waves Ship Positions

Sunflower IVory

Last reported at 2018-Jan-22 13:28 UTC. Time now 2018-Jan-22 13:43 UTC.
Position N 34°26' E 134°08'.

Length 153 m; draft 5.7 m.

Type: Ship. MMSI: 431300686.

Date/timePositionNaut miles runAvg speedWind from/ knotsBaromVisibWave heightAir tempDewpointWater temp
2018-Jan-22 13:28N 34°26' E 134°08'1020.8
2018-Jan-22 13:00N 34°24' E 134°20'1020.4
2018-Jan-22 12:31N 34°28' E 134°31'1020.6
2018-Jan-22 12:01N 34°32' E 134°43'1020.3
2018-Jan-22 11:30N 34°36' E 134°54'917.1
2018-Jan-22 11:00N 34°35' E 135°05'1020.3
2018-Jan-22 10:30N 34°37' E 135°17'713.1
2018-Jan-22 10:00N 34°38' E 135°25'0 0.0
2018-Jan-22 09:27N 34°38' E 135°25'0 0.0
2018-Jan-22 09:00N 34°38' E 135°25'0 0.0
2018-Jan-22 08:30N 34°38' E 135°25'0 0.0
2018-Jan-22 07:57N 34°38' E 135°25'0 0.0
2018-Jan-22 07:30N 34°38' E 135°25'0 0.0
2018-Jan-22 06:57N 34°38' E 135°25'0 0.0
2018-Jan-22 06:27N 34°38' E 135°25'0 0.0
2018-Jan-22 05:57N 34°38' E 135°25'0 0.0
2018-Jan-22 05:30N 34°38' E 135°25'0 0.0
2018-Jan-22 05:00N 34°38' E 135°25'0 0.0
2018-Jan-22 04:30N 34°38' E 135°25'0 0.0
2018-Jan-22 04:00N 34°38' E 135°25'0 0.0
2018-Jan-22 03:27N 34°38' E 135°25'0 0.0
2018-Jan-22 03:00N 34°38' E 135°25'0 0.0
2018-Jan-22 02:27N 34°38' E 135°25'0 0.0
2018-Jan-22 02:00N 34°38' E 135°25'0 0.0
2018-Jan-22 01:27N 34°38' E 135°25'0 0.0
2018-Jan-22 01:00N 34°38' E 135°25'0 0.0
2018-Jan-22 00:30N 34°38' E 135°25'0 0.0
2018-Jan-21 23:57N 34°38' E 135°25'0 0.0
2018-Jan-21 23:30N 34°38' E 135°25'0 0.0
2018-Jan-21 23:00N 34°38' E 135°25'0 0.0
2018-Jan-21 22:30N 34°38' E 135°25'0 0.0
2018-Jan-21 22:00N 34°38' E 135°25'0 0.0
2018-Jan-21 21:30N 34°38' E 135°25'510.3
2018-Jan-21 21:00N 34°36' E 135°19'918.8
2018-Jan-21 20:30N 34°34' E 135°08'918.3
2018-Jan-21 20:00N 34°36' E 134°57'1019.8
2018-Jan-21 19:31N 34°32' E 134°46'918.5
2018-Jan-21 19:00N 34°29' E 134°36'918.4
2018-Jan-21 18:30N 34°25' E 134°25'918.2
2018-Jan-21 17:59N 34°24' E 134°14'7017.5
2018-Jan-21 13:59N 34°07' E 132°52'1021.4
2018-Jan-21 13:30N 33°59' E 132°44'1121.0
2018-Jan-21 13:00N 33°52' E 132°35'1020.4
2018-Jan-21 12:30N 33°46' E 132°26'1820.7
2018-Jan-21 11:38N 33°36' E 132°07'320.7
2018-Jan-21 11:30N 33°34' E 132°05'1120.9
2018-Jan-21 11:00N 33°28' E 131°54'1020.7
2018-Jan-21 10:30N 33°22' E 131°44'12 1.0
2018-Jan-20 22:34N 33°18' E 131°30'715.8
2018-Jan-20 22:08N 33°19' E 131°39'418.7
2018-Jan-20 21:55N 33°21' E 131°43'818.1
2018-Jan-20 21:28N 33°26' E 131°51'1518.3
2018-Jan-20 20:39N 33°34' E 132°06'318.8
2018-Jan-20 20:30N 33°36' E 132°08'918.9
2018-Jan-20 20:00N 33°41' E 132°17'1019.3
2018-Jan-20 19:30N 33°47' E 132°27'1019.4
2018-Jan-20 18:59N 33°54' E 132°36'920.0
2018-Jan-20 18:31N 34°00' E 132°44'6717.3
2018-Jan-20 14:38N 34°25' E 133°59'214.0
2018-Jan-20 14:30N 34°26' E 134°01'1019.4
2018-Jan-20 14:00N 34°24' E 134°13'1020.6
2018-Jan-20 13:30N 34°26' E 134°25'1021.0
2018-Jan-20 13:00N 34°31' E 134°37'1020.5
2018-Jan-20 12:30N 34°34' E 134°49'1121.2
2018-Jan-20 12:00N 34°38' E 135°01'1020.0
2018-Jan-20 11:30N 34°36' E 135°13'918.8
2018-Jan-20 11:00N 34°38' E 135°24'1 1.4
2018-Jan-20 10:29N 34°38' E 135°25'0 0.0
2018-Jan-20 09:59N 34°38' E 135°25'0 0.0
2018-Jan-20 09:29N 34°38' E 135°25'0 0.0
2018-Jan-20 08:59N 34°38' E 135°25'0 0.0
2018-Jan-20 08:29N 34°38' E 135°25'0 0.0
2018-Jan-20 07:59N 34°38' E 135°25'0 0.0
2018-Jan-20 07:29N 34°38' E 135°25'0 0.0
2018-Jan-20 06:59N 34°38' E 135°25'0 0.0
2018-Jan-20 06:29N 34°38' E 135°25'0 0.0
2018-Jan-20 05:59N 34°38' E 135°25'0 0.0
2018-Jan-20 05:29N 34°38' E 135°25'0 0.0
2018-Jan-20 04:59N 34°38' E 135°25'0 0.0
2018-Jan-20 04:29N 34°38' E 135°25'0 0.0
2018-Jan-20 03:59N 34°38' E 135°25'0 0.0
2018-Jan-20 03:29N 34°38' E 135°25'0 0.0
2018-Jan-20 02:59N 34°38' E 135°25'0 0.0
2018-Jan-20 02:29N 34°38' E 135°25'0 0.0
2018-Jan-20 01:59N 34°38' E 135°25'0 0.0
2018-Jan-20 01:29N 34°38' E 135°25'0 0.0
2018-Jan-20 00:59N 34°38' E 135°25'0 0.0
2018-Jan-20 00:29N 34°38' E 135°25'0 0.0
2018-Jan-19 23:59N 34°38' E 135°25'0 0.0
2018-Jan-19 23:29N 34°38' E 135°25'0 0.0
2018-Jan-19 22:59N 34°38' E 135°25'0 0.0
2018-Jan-19 22:29N 34°38' E 135°25'3 5.2
2018-Jan-19 22:00N 34°37' E 135°22'917.3
2018-Jan-19 21:31N 34°35' E 135°12'917.7
2018-Jan-19 21:00N 34°37' E 135°01'918.8
2018-Jan-19 20:31N 34°34' E 134°50'918.8
2018-Jan-19 20:01N 34°30' E 134°40'918.4
2018-Jan-19 19:30N 34°26' E 134°30'918.3
2018-Jan-19 19:01N 34°24' E 134°19'1019.3
2018-Jan-19 18:28N 34°26' E 134°07'6817.7
2018-Jan-19 14:39N 34°06' E 132°49'321.0
2018-Jan-19 14:29N 34°03' E 132°47'1021.1
2018-Jan-19 14:00N 33°55' E 132°39'1120.9
2018-Jan-19 13:29N 33°48' E 132°29'1121.1
2018-Jan-19 12:58N 33°42' E 132°18'1021.1
2018-Jan-19 12:29N 33°37' E 132°08'1021.2
2018-Jan-19 12:00N 33°31' E 131°58'1420.9
2018-Jan-19 11:22N 33°23' E 131°45'720.1
2018-Jan-19 11:00N 33°19' E 131°37'0 0.0
2018-Jan-18 21:14N 33°19' E 131°38'418.0
2018-Jan-18 21:00N 33°20' E 131°42'917.7
2018-Jan-18 20:30N 33°26' E 131°51'1417.8
2018-Jan-18 19:41N 33°34' E 132°05'318.7
2018-Jan-18 19:30N 33°36' E 132°09'1019.0
2018-Jan-18 19:00N 33°42' E 132°18'1020.1
2018-Jan-18 18:31N 33°47' E 132°28'1020.4
2018-Jan-18 18:00N 33°54' E 132°37'1120.7
2018-Jan-18 17:29N 34°02' E 132°46'6817.5
2018-Jan-18 13:34N 34°27' E 134°03'320.7
2018-Jan-18 13:27N 34°27' E 134°06'920.4
2018-Jan-18 13:00N 34°24' E 134°17'1020.4
2018-Jan-18 12:30N 34°27' E 134°29'1020.5
2018-Jan-18 12:00N 34°31' E 134°40'1121.0
2018-Jan-18 11:30N 34°35' E 134°52'1019.9
2018-Jan-18 11:00N 34°36' E 135°04'1020.4
2018-Jan-18 10:30N 34°37' E 135°16'714.2
2018-Jan-18 10:00N 34°38' E 135°25'0 0.0
2018-Jan-18 09:30N 34°38' E 135°25'0 0.0
2018-Jan-18 09:00N 34°38' E 135°25'0 0.0
2018-Jan-18 08:30N 34°38' E 135°25'0 0.0
2018-Jan-18 08:00N 34°38' E 135°25'0 0.0
2018-Jan-18 07:30N 34°38' E 135°25'0 0.0
2018-Jan-18 07:00N 34°38' E 135°25'0 0.0
2018-Jan-18 06:30N 34°38' E 135°25'0 0.0
2018-Jan-18 06:00N 34°38' E 135°25'0 0.0
2018-Jan-18 05:30N 34°38' E 135°25'0 0.0
2018-Jan-18 05:00N 34°38' E 135°25'0 0.0
2018-Jan-18 04:30N 34°38' E 135°25'0 0.0
2018-Jan-18 04:00N 34°38' E 135°25'0 0.0
2018-Jan-18 03:30N 34°38' E 135°25'0 0.0
2018-Jan-18 03:00N 34°38' E 135°25'0 0.0
2018-Jan-18 02:30N 34°38' E 135°25'0 0.0
2018-Jan-18 02:00N 34°38' E 135°25'0 0.0
2018-Jan-18 01:30N 34°38' E 135°25'0 0.0
2018-Jan-18 01:00N 34°38' E 135°25'0 0.0
2018-Jan-18 00:00N 34°38' E 135°25'0 0.0
2018-Jan-17 23:57N 34°38' E 135°25'  
2018-Jan-12 14:38N 34°26' E 134°02'517.8
2018-Jan-12 14:20N 34°26' E 134°08'719.4
2018-Jan-12 14:00N 34°25' E 134°16'1020.5
2018-Jan-12 13:30N 34°28' E 134°28'  

Dump ship's entire track history